Time;durP1;ratioP1;P1;durP2;ratioP2;P2;SDS_P1;SDS_P2;PMS_P1;PMS_P2;Temp;Humidity;BMP_temperature;BMP_pressure;BME280_temperature;BME280_humidity;BME280_pressure;Samples;Min_cycle;Max_cycle;Signal;HPM_P1;HPM_P2
2022/06/07 00:00:58;;;;;;;;;;;;;;;17.78;54.69;100495.97;5036649;27;128773;-70
2022/06/07 00:03:24;;;;;;;;;;;;;;;17.76;54.67;100495.47;5021318;27;98360;-69
2022/06/07 00:05:50;;;;;;;;;;;;;;;17.75;54.71;100498.53;5009412;27;98990;-62
2022/06/07 00:08:18;;;;;;;;;;;;;;;17.72;54.93;100497.19;5014151;27;116861;-62
2022/06/07 00:10:45;;;;;;;;;;;;;;;17.67;55.00;100498.16;5035718;27;98512;-62
2022/06/07 00:13:11;;;;;;;;;;;;;;;17.66;54.85;100487.56;5020817;27;98827;-62
2022/06/07 00:15:38;;;;;;;;;;;;;;;17.65;54.96;100494.16;5016461;27;98047;-69
2022/06/07 00:18:04;;;;;;;;;;;;;;;17.65;55.10;100486.78;5018871;27;118379;-62
2022/06/07 00:20:30;;;;;;;;;;;;;;;17.63;55.09;100491.72;5020265;27;97623;-62
2022/06/07 00:22:56;;;;;;;;;;;;;;;17.63;55.23;100488.19;5035375;27;98514;-69
2022/06/07 00:25:22;;;;;;;;;;;;;;;17.63;55.23;100488.19;5039728;27;119513;-69
2022/06/07 00:27:48;;;;;;;;;;;;;;;17.64;55.09;100477.00;5041195;27;97467;-69
2022/06/07 00:30:14;;;;;;;;;;;;;;;17.66;55.23;100482.91;5039664;27;129768;-63
2022/06/07 00:32:41;;;;;;;;;;;;;;;17.71;55.12;100475.72;5035363;27;127083;-62
2022/06/07 00:35:07;;;;;;;;;;;;;;;17.72;54.97;100461.75;5019750;27;97590;-69
2022/06/07 00:37:33;;;;;;;;;;;;;;;17.75;55.09;100454.91;5021357;27;97571;-68
2022/06/07 00:39:59;;;;;;;;;;;;;;;17.78;54.99;100457.03;5019143;27;127325;-67
2022/06/07 00:42:25;;;;;;;;;;;;;;;17.81;55.10;100459.13;5026326;27;127840;-63
2022/06/07 00:44:51;;;;;;;;;;;;;;;17.79;55.16;100456.69;5024309;27;97876;-63
2022/06/07 00:47:19;;;;;;;;;;;;;;;17.77;55.46;100452.69;5019117;27;97191;-69
2022/06/07 00:49:49;;;;;;;;;;;;;;;17.71;55.52;100451.19;5019954;28;98032;-69
2022/06/07 00:52:16;;;;;;;;;;;;;;;17.64;55.78;100455.19;5023235;27;97607;-70
2022/06/07 00:54:42;;;;;;;;;;;;;;;17.60;55.66;100454.19;5019924;28;103774;-63
2022/06/07 00:57:08;;;;;;;;;;;;;;;17.58;55.59;100452.91;5024895;27;97579;-70
2022/06/07 00:59:34;;;;;;;;;;;;;;;17.59;55.59;100452.59;5039780;27;98145;-63
2022/06/07 01:02:00;;;;;;;;;;;;;;;17.60;55.63;100445.22;5036281;27;99061;-63
2022/06/07 01:04:27;;;;;;;;;;;;;;;17.62;55.57;100449.22;5020064;27;126829;-63
2022/06/07 01:12:26;;;;;;;;;;;;;;;17.56;55.92;100449.69;5030323;27;97759;-65
2022/06/07 01:14:52;;;;;;;;;;;;;;;17.53;55.86;100442.16;5018781;27;97652;-69
2022/06/07 01:17:19;;;;;;;;;;;;;;;17.51;55.74;100447.09;5017723;27;117512;-69
2022/06/07 01:19:45;;;;;;;;;;;;;;;17.51;55.79;100449.81;4999115;28;98724;-68
2022/06/07 01:22:11;;;;;;;;;;;;;;;17.51;55.93;100447.09;5008585;27;109119;-63
2022/06/07 01:24:37;;;;;;;;;;;;;;;17.52;55.90;100440.53;5020851;27;97378;-69
2022/06/07 01:27:04;;;;;;;;;;;;;;;17.51;55.74;100434.28;5019474;28;113998;-63
2022/06/07 01:29:30;;;;;;;;;;;;;;;17.53;55.64;100442.16;5018939;27;105259;-63
2022/06/07 01:31:56;;;;;;;;;;;;;;;17.54;55.72;100446.47;5019075;28;127809;-63
2022/06/07 01:34:22;;;;;;;;;;;;;;;17.54;55.98;100436.38;5018855;27;125813;-63
2022/06/07 01:36:48;;;;;;;;;;;;;;;17.53;56.05;100429.34;5017958;27;97586;-68
2022/06/07 01:41:58;;;;;;;;;;;;;;;17.49;56.32;100433.81;5017960;27;97875;-62
2022/06/07 01:44:27;;;;;;;;;;;;;;;17.46;56.59;100428.19;5025378;27;125686;-70
2022/06/07 01:46:53;;;;;;;;;;;;;;;17.42;56.51;100436.16;5040013;27;102817;-69
2022/06/07 01:49:19;;;;;;;;;;;;;;;17.38;56.46;100438.72;5021204;27;109260;-69
2022/06/07 01:51:45;;;;;;;;;;;;;;;17.37;56.61;100436.28;5022738;27;99808;-62
2022/06/07 01:54:12;;;;;;;;;;;;;;;17.36;56.82;100430.03;5023398;27;127616;-69
2022/06/07 01:56:39;;;;;;;;;;;;;;;17.33;56.73;100430.69;5018950;28;97522;-63
2022/06/07 01:59:06;;;;;;;;;;;;;;;17.33;56.75;100430.69;5031367;27;127224;-63
2022/06/07 02:01:32;;;;;;;;;;;;;;;17.32;57.04;100433.72;5039463;27;98424;-69
2022/06/07 02:03:58;;;;;;;;;;;;;;;17.31;57.12;100424.72;5024288;27;125032;-63
2022/06/07 02:06:24;;;;;;;;;;;;;;;17.30;57.06;100425.84;5006553;27;115764;-68
2022/06/07 02:08:50;;;;;;;;;;;;;;;17.29;57.07;100426.97;5014439;27;97371;-69
2022/06/07 02:11:21;;;;;;;;;;;;;;;17.30;57.05;100428.59;5015861;28;126791;-69
2022/06/07 02:13:47;;;;;;;;;;;;;;;17.33;57.02;100429.84;5018107;27;102395;-64
2022/06/07 02:16:13;;;;;;;;;;;;;;;17.33;56.75;100424.41;5033867;27;97578;-63
2022/06/07 02:18:39;;;;;;;;;;;;;;;17.35;57.00;100428.44;5027539;27;99052;-69
2022/06/07 02:21:05;;;;;;;;;;;;;;;17.35;56.84;100423.00;5036854;27;128269;-69
2022/06/07 02:23:33;;;;;;;;;;;;;;;17.37;56.92;100428.13;5039024;27;97371;-63
2022/06/07 02:26:23;;;;;;;;;;;;;;;17.37;56.84;100426.22;5023287;27;97627;-69
2022/06/07 02:29:19;;;;;;;;;;;;;;;17.39;56.84;100421.25;5019941;27;100446;-63
2022/06/07 02:31:49;;;;;;;;;;;;;;;17.40;56.89;100416.59;5032906;27;97522;-70
2022/06/07 02:34:15;;;;;;;;;;;;;;;17.41;56.80;100405.41;5037763;27;97925;-70
2022/06/07 02:36:42;;;;;;;;;;;;;;;17.41;56.84;100401.88;5036903;27;97701;-69
2022/06/07 02:39:08;;;;;;;;;;;;;;;17.43;57.01;100402.34;5035589;27;130051;-69
2022/06/07 02:41:34;;;;;;;;;;;;;;;17.44;56.99;100409.41;5018698;27;127453;-69
2022/06/07 02:44:01;;;;;;;;;;;;;;;17.44;56.92;100409.41;5000951;28;97088;-63
2022/06/07 02:46:27;;;;;;;;;;;;;;;17.45;56.96;100416.47;5018372;27;97454;-69
2022/06/07 02:48:53;;;;;;;;;;;;;;;17.44;56.98;100414.84;5018066;27;124625;-67
2022/06/07 02:51:19;;;;;;;;;;;;;;;17.45;56.88;100418.38;5026662;27;123946;-62
2022/06/07 02:53:44;;;;;;;;;;;;;;;17.44;57.14;100409.41;5038127;27;97574;-62
2022/06/07 02:56:10;;;;;;;;;;;;;;;17.43;57.09;100418.69;5038340;27;97497;-69
2022/06/07 02:58:36;;;;;;;;;;;;;;;17.42;56.92;100411.66;5037114;27;127324;-68
2022/06/07 03:01:02;;;;;;;;;;;;;;;17.42;56.98;100404.28;5033326;27;123562;-62
2022/06/07 03:03:28;;;;;;;;;;;;;;;17.42;57.34;100403.47;5016615;27;124392;-63
2022/06/07 03:05:54;;;;;;;;;;;;;;;17.43;57.11;100407.81;5010341;27;109260;-63
2022/06/07 03:08:21;;;;;;;;;;;;;;;17.42;57.22;100407.00;5021022;27;98786;-68
2022/06/07 03:10:47;;;;;;;;;;;;;;;17.45;57.16;100410.19;5034743;27;97608;-62
2022/06/07 03:13:13;;;;;;;;;;;;;;;17.46;57.22;100411.81;5017629;27;97614;-68
2022/06/07 03:15:40;;;;;;;;;;;;;;;17.46;57.21;100425.44;5018743;28;97363;-64
2022/06/07 03:18:06;;;;;;;;;;;;;;;17.45;57.08;100421.94;5015638;27;118514;-69
2022/06/07 03:20:32;;;;;;;;;;;;;;;17.45;57.23;100421.94;5017202;27;99803;-68
2022/06/07 03:22:58;;;;;;;;;;;;;;;17.44;57.28;100423.03;5033098;27;126235;-70
2022/06/07 03:25:24;;;;;;;;;;;;;;;17.46;57.37;100428.19;5037571;27;116330;-64
2022/06/07 03:27:50;;;;;;;;;;;;;;;17.44;57.47;100431.19;5037824;27;98421;-63
2022/06/07 03:30:16;;;;;;;;;;;;;;;17.46;57.39;100428.19;5034339;27;127015;-69
2022/06/07 03:32:42;;;;;;;;;;;;;;;17.46;57.41;100430.91;5033589;27;97887;-68
2022/06/07 03:35:09;;;;;;;;;;;;;;;17.48;57.51;100426.72;4998717;28;100482;-62
2022/06/07 03:37:36;;;;;;;;;;;;;;;17.52;57.45;100418.72;5005667;27;118186;-68
2022/06/07 03:40:04;;;;;;;;;;;;;;;17.57;57.27;100424.84;5017380;27;98515;-68
2022/06/07 03:42:30;;;;;;;;;;;;;;;17.63;57.38;100426.31;5020216;27;115739;-68
2022/06/07 03:44:55;;;;;;;;;;;;;;;17.68;57.39;100417.19;5037301;27;112823;-70
2022/06/07 03:47:21;;;;;;;;;;;;;;;17.73;57.42;100427.97;5035834;27;128464;-68
2022/06/07 03:49:47;;;;;;;;;;;;;;;17.76;57.26;100430.06;5017641;28;126352;-63
2022/06/07 03:52:14;;;;;;;;;;;;;;;17.76;57.38;100430.06;5019366;27;98037;-63
2022/06/07 03:54:40;;;;;;;;;;;;;;;17.77;57.49;100436.34;5021086;27;97463;-62
2022/06/07 03:57:07;;;;;;;;;;;;;;;17.78;57.29;100437.94;5020848;28;105711;-68
2022/06/07 03:59:32;;;;;;;;;;;;;;;17.81;57.36;100437.31;5020368;27;98177;-68
2022/06/07 04:01:58;;;;;;;;;;;;;;;17.84;57.22;100433.94;5030449;27;97283;-62
2022/06/07 04:04:24;;;;;;;;;;;;;;;17.86;57.23;100435.22;5039306;27;116914;-63
2022/06/07 04:09:41;;;;;;;;;;;;;;;17.90;57.10;100440.84;5018075;27;97371;-69
2022/06/07 04:12:09;;;;;;;;;;;;;;;17.92;57.14;100433.19;5025313;27;97290;-69
2022/06/07 04:14:37;;;;;;;;;;;;;;;17.94;57.16;100438.31;5020090;28;97521;-62
2022/06/07 04:17:03;;;;;;;;;;;;;;;17.95;57.33;100432.53;5020535;27;97441;-63
2022/06/07 04:19:29;;;;;;;;;;;;;;;17.95;57.25;100437.97;5020645;27;98163;-63
2022/06/07 04:21:55;;;;;;;;;;;;;;;17.97;57.25;100426.78;5028778;27;98140;-69
2022/06/07 04:24:21;;;;;;;;;;;;;;;18.02;57.20;100426.59;5038359;27;117926;-63
2022/06/07 04:26:47;;;;;;;;;;;;;;;18.10;57.14;100426.63;5041154;27;97198;-69
2022/06/07 04:29:13;;;;;;;;;;;;;;;18.23;56.79;100430.31;5023202;27;97656;-63
2022/06/07 04:31:39;;;;;;;;;;;;;;;18.35;56.81;100425.06;5026464;27;97173;-63
2022/06/07 04:34:05;;;;;;;;;;;;;;;18.52;56.50;100431.63;5041435;27;98502;-62
2022/06/07 04:36:31;;;;;;;;;;;;;;;18.65;56.36;100431.47;5021491;27;128169;-68
2022/06/07 04:38:59;;;;;;;;;;;;;;;18.73;56.50;100429.09;5035799;27;127646;-63
2022/06/07 04:41:25;;;;;;;;;;;;;;;18.78;56.44;100420.72;5032855;27;113628;-62
2022/06/07 04:43:52;;;;;;;;;;;;;;;18.81;56.22;100425.53;5025077;27;98672;-68
2022/06/07 04:46:18;;;;;;;;;;;;;;;18.85;56.38;100426.50;5013984;27;125960;-68
2022/06/07 04:48:44;;;;;;;;;;;;;;;18.91;56.22;100419.75;5015564;27;97974;-64
2022/06/07 04:51:22;;;;;;;;;;;;;;;18.99;56.13;100423.59;5015349;27;97380;-61
2022/06/07 04:53:48;;;;;;;;;;;;;;;19.10;56.21;100430.31;5016231;27;97410;-62
2022/06/07 04:56:17;;;;;;;;;;;;;;;19.20;56.03;100418.22;5013616;28;127447;-68
2022/06/07 04:58:43;;;;;;;;;;;;;;;19.30;56.05;100421.41;5015847;27;97758;-62
2022/06/07 05:01:14;;;;;;;;;;;;;;;19.44;55.89;100423.13;5014535;27;106659;-62
2022/06/07 05:03:40;;;;;;;;;;;;;;;19.56;55.78;100429.50;5021072;27;97913;-62
2022/06/07 05:06:19;;;;;;;;;;;;;;;19.67;55.37;100435.44;5013508;27;126779;-62
2022/06/07 05:08:45;;;;;;;;;;;;;;;19.76;55.25;100430.72;5014386;27;109412;-68
2022/06/07 05:11:11;;;;;;;;;;;;;;;19.84;55.17;100420.88;5016682;27;98243;-70
2022/06/07 05:13:37;;;;;;;;;;;;;;;19.91;55.10;100437.56;5020632;27;116204;-62
2022/06/07 05:16:04;;;;;;;;;;;;;;;19.96;55.17;100436.56;5019552;27;127537;-62
2022/06/07 05:18:30;;;;;;;;;;;;;;;19.95;55.33;100435.78;5019173;27;109883;-61
2022/06/07 05:20:56;;;;;;;;;;;;;;;19.92;55.08;100436.41;5018169;28;127819;-68
2022/06/07 05:23:22;;;;;;;;;;;;;;;19.97;55.19;100436.25;5037319;27;97313;-62
2022/06/07 05:26:00;;;;;;;;;;;;;;;20.03;54.91;100439.59;5036529;27;126713;-61
2022/06/07 05:28:26;;;;;;;;;;;;;;;20.07;54.74;100435.06;5021688;27;98478;-62
2022/06/07 05:30:52;;;;;;;;;;;;;;;20.05;54.87;100445.53;5019563;27;128170;-68
2022/06/07 05:33:18;;;;;;;;;;;;;;;20.10;54.70;100434.41;5029989;27;116200;-68
2022/06/07 05:35:44;;;;;;;;;;;;;;;20.19;54.34;100432.41;5039436;27;125316;-68
2022/06/07 05:38:14;;;;;;;;;;;;;;;20.37;54.18;100429.53;5039242;27;126989;-62
2022/06/07 05:40:40;;;;;;;;;;;;;;;20.65;53.99;100432.56;5039823;27;97322;-68
2022/06/07 05:43:06;;;;;;;;;;;;;;;21.09;53.19;100422.78;5024547;27;116368;-62
2022/06/07 05:45:32;;;;;;;;;;;;;;;21.74;52.04;100425.75;5018172;28;126447;-68
2022/06/07 05:47:58;;;;;;;;;;;;;;;22.76;50.87;100431.94;5027728;27;127348;-65
2022/06/07 05:50:25;;;;;;;;;;;;;;;22.49;51.52;100445.31;5034489;27;126341;-68
2022/06/07 05:52:51;;;;;;;;;;;;;;;22.45;51.30;100438.91;5028865;27;97411;-70
2022/06/07 05:55:17;;;;;;;;;;;;;;;22.44;51.18;100450.22;5038277;27;118151;-62
2022/06/07 05:57:49;;;;;;;;;;;;;;;22.44;51.10;100448.31;5038918;27;112035;-62
2022/06/07 06:00:16;;;;;;;;;;;;;;;22.44;50.77;100448.31;5037836;27;98517;-62
2022/06/07 06:02:42;;;;;;;;;;;;;;;22.46;50.78;100456.19;5036587;27;118439;-68
2022/06/07 06:05:08;;;;;;;;;;;;;;;22.47;50.54;100458.56;5037003;27;126339;-68
2022/06/07 06:07:34;;;;;;;;;;;;;;;22.51;50.39;100461.44;5018181;27;127360;-62
2022/06/07 06:12:44;;;;;;;;;;;;;;;22.41;50.09;100454.50;5036201;27;97768;-68
2022/06/07 06:15:10;;;;;;;;;;;;;;;22.44;49.77;100461.22;5037570;27;125603;-62
2022/06/07 06:17:36;;;;;;;;;;;;;;;22.45;49.79;100457.34;5034507;27;126884;-62
2022/06/07 06:20:02;;;;;;;;;;;;;;;22.45;49.70;100460.09;5026709;27;97959;-61
2022/06/07 06:22:28;;;;;;;;;;;;;;;22.51;49.60;100458.69;5037244;27;97696;-68
2022/06/07 06:24:54;;;;;;;;;;;;;;;22.53;49.54;100450.91;5038180;27;118406;-62
2022/06/07 06:27:21;;;;;;;;;;;;;;;22.53;49.44;100459.94;5039671;27;98234;-62
2022/06/07 06:29:47;;;;;;;;;;;;;;;22.56;49.32;100466.69;5030801;27;98337;-68
2022/06/07 06:32:13;;;;;;;;;;;;;;;22.56;49.12;100466.69;5018550;27;100461;-68
2022/06/07 06:34:38;;;;;;;;;;;;;;;22.58;49.09;100458.09;5017401;27;127246;-62
2022/06/07 06:37:06;;;;;;;;;;;;;;;22.57;49.05;100460.06;5018242;28;128054;-62
2022/06/07 06:39:32;;;;;;;;;;;;;;;22.58;48.82;100464.38;5033905;27;98554;-62
2022/06/07 06:41:58;;;;;;;;;;;;;;;22.57;48.96;100464.75;5018674;27;109211;-62
2022/06/07 06:44:24;;;;;;;;;;;;;;;22.48;48.99;100468.44;5017931;27;98209;-62
2022/06/07 06:46:50;;;;;;;;;;;;;;;22.36;49.21;100464.91;5017439;27;98270;-62
2022/06/07 06:49:18;;;;;;;;;;;;;;;22.22;49.24;100470.78;5019288;27;98286;-62
2022/06/07 06:51:44;;;;;;;;;;;;;;;22.05;49.44;100467.09;5022736;27;97454;-68
2022/06/07 06:54:11;;;;;;;;;;;;;;;21.93;49.72;100463.56;5018798;28;97690;-62
2022/06/07 06:56:37;;;;;;;;;;;;;;;21.78;49.80;100454.09;5019576;27;97541;-62
2022/06/07 06:59:03;;;;;;;;;;;;;;;21.66;49.88;100456.84;5017485;27;126282;-62
2022/06/07 07:01:31;;;;;;;;;;;;;;;21.52;50.09;100462.63;5018274;27;117451;-61
2022/06/07 07:03:58;;;;;;;;;;;;;;;21.39;50.32;100458.28;5019947;27;100219;-61
2022/06/07 07:06:25;;;;;;;;;;;;;;;21.27;50.60;100461.78;5005751;27;97600;-62
2022/06/07 07:08:51;;;;;;;;;;;;;;;21.17;50.77;100464.94;5013372;27;121622;-68
2022/06/07 07:11:22;;;;;;;;;;;;;;;21.09;50.81;100467.41;5029334;27;97773;-68
2022/06/07 07:13:49;;;;;;;;;;;;;;;21.02;51.04;100472.63;5012068;27;98582;-63
2022/06/07 07:16:17;;;;;;;;;;;;;;;20.94;51.17;100473.53;5017311;27;116984;-63
2022/06/07 07:18:44;;;;;;;;;;;;;;;20.86;51.35;100476.34;5029832;27;97382;-68
2022/06/07 07:21:15;;;;;;;;;;;;;;;20.75;51.38;100493.22;5038082;27;97528;-70
2022/06/07 07:23:41;;;;;;;;;;;;;;;20.66;51.91;100478.75;5036771;27;97646;-62
2022/06/07 07:26:10;;;;;;;;;;;;;;;20.58;51.75;100477.69;5016530;27;128802;-63
2022/06/07 07:28:36;;;;;;;;;;;;;;;20.51;52.01;100493.84;5028486;27;97348;-62
2022/06/07 07:31:04;;;;;;;;;;;;;;;20.45;52.13;100499.84;5038081;27;97398;-68
2022/06/07 07:33:30;;;;;;;;;;;;;;;20.41;52.48;100494.22;4998930;27;97733;-68
2022/06/07 07:35:56;;;;;;;;;;;;;;;20.34;52.65;100493.97;5017614;27;99179;-64
2022/06/07 07:38:23;;;;;;;;;;;;;;;20.28;53.01;100496.09;5025594;27;98038;-69
2022/06/07 07:40:50;;;;;;;;;;;;;;;20.23;53.34;100487.25;5038042;27;97110;-63
2022/06/07 07:43:16;;;;;;;;;;;;;;;20.18;53.40;100504.69;5018012;27;98631;-70
2022/06/07 07:45:42;;;;;;;;;;;;;;;20.13;53.66;100491.19;5017359;28;113231;-63
2022/06/07 07:48:08;;;;;;;;;;;;;;;20.06;53.89;100488.97;5026203;27;127609;-63
2022/06/07 07:50:34;;;;;;;;;;;;;;;20.02;54.09;100489.97;5033151;27;97317;-63
2022/06/07 07:53:00;;;;;;;;;;;;;;;19.97;54.16;100490.16;5017471;27;126856;-69
2022/06/07 07:55:26;;;;;;;;;;;;;;;19.95;54.21;100490.47;5017301;27;125248;-70
2022/06/07 07:57:52;;;;;;;;;;;;;;;19.92;54.82;100491.13;5017510;27;126434;-69
2022/06/07 08:00:18;;;;;;;;;;;;;;;19.88;54.56;100486.66;5016658;27;116930;-69
2022/06/07 08:02:44;;;;;;;;;;;;;;;19.84;54.70;100490.03;5020401;27;112009;-63
2022/06/07 08:05:10;;;;;;;;;;;;;;;19.83;54.93;100485.69;5034666;27;126764;-69
2022/06/07 08:07:36;;;;;;;;;;;;;;;19.87;55.03;100488.59;5018195;27;97591;-68
2022/06/07 08:10:02;;;;;;;;;;;;;;;19.94;55.09;100488.88;5037920;27;97590;-69
2022/06/07 08:12:29;;;;;;;;;;;;;;;20.10;54.88;100472.69;5028984;27;120286;-63
2022/06/07 08:14:55;;;;;;;;;;;;;;;20.41;54.60;100477.00;5016510;28;98760;-68
2022/06/07 08:17:21;;;;;;;;;;;;;;;20.87;53.90;100469.72;5014154;28;125655;-69
2022/06/07 08:19:47;;;;;;;;;;;;;;;21.93;52.41;100469.03;5016981;27;117621;-69
2022/06/07 08:22:13;;;;;;;;;;;;;;;23.48;49.93;100471.19;5028807;27;126890;-68
2022/06/07 08:24:38;;;;;;;;;;;;;;;23.32;50.95;100475.09;5018364;27;122653;-69
2022/06/07 08:27:05;;;;;;;;;;;;;;;23.19;50.80;100479.88;5014745;27;128027;-70
2022/06/07 08:29:31;;;;;;;;;;;;;;;23.08;50.84;100487.81;4991798;28;98582;-69
2022/06/07 08:31:57;;;;;;;;;;;;;;;22.93;50.93;100480.31;5031046;27;97803;-63
2022/06/07 08:39:52;;;;;;;;;;;;;;;22.45;51.57;100462.84;5033698;27;98082;-62
2022/06/07 08:42:27;;;;;;;;;;;;;;;22.41;51.74;100461.94;5038861;27;127482;-68
2022/06/07 08:45:00;;;;;;;;;;;;;;;22.50;51.57;100460.63;5022310;27;109443;-69
2022/06/07 08:47:37;;;;;;;;;;;;;;;22.96;50.75;100460.41;5037924;27;97416;-62
2022/06/07 08:50:13;;;;;;;;;;;;;;;23.66;49.67;100457.91;5018121;27;97135;-69
2022/06/07 08:52:39;;;;;;;;;;;;;;;24.34;49.00;100456.72;5024720;27;115785;-63
2022/06/07 08:55:32;;;;;;;;;;;;;;;24.32;49.08;100453.50;5021960;27;127390;-68
2022/06/07 08:58:01;;;;;;;;;;;;;;;24.57;48.40;100448.59;5031755;27;120291;-69
2022/06/07 09:00:31;;;;;;;;;;;;;;;24.71;48.34;100451.59;5020834;27;97686;-69
2022/06/07 09:03:20;;;;;;;;;;;;;;;24.85;47.69;100445.59;5021932;27;97811;-62
2022/06/07 09:05:52;;;;;;;;;;;;;;;25.69;46.41;100439.19;5024351;27;97935;-63
2022/06/07 09:08:18;;;;;;;;;;;;;;;25.77;46.44;100442.09;5029064;27;98028;-69
2022/06/07 09:13:28;;;;;;;;;;;;;;;26.01;46.04;100436.16;5011388;27;97087;-69
2022/06/07 09:15:55;;;;;;;;;;;;;;;26.35;45.85;100427.94;5039522;27;118334;-64
2022/06/07 09:18:25;;;;;;;;;;;;;;;26.76;45.25;100420.56;5037843;27;97466;-68
2022/06/07 09:20:53;;;;;;;;;;;;;;;26.62;45.48;100429.50;5040990;27;97691;-63
2022/06/07 09:23:28;;;;;;;;;;;;;;;26.45;45.75;100435.63;5031775;27;97391;-69
2022/06/07 09:25:55;;;;;;;;;;;;;;;26.39;45.59;100431.56;5018420;27;97762;-68
2022/06/07 09:28:29;;;;;;;;;;;;;;;26.21;45.75;100428.53;5019831;27;126919;-68
2022/06/07 09:31:10;;;;;;;;;;;;;;;25.94;45.66;100422.28;5019805;27;97423;-69
2022/06/07 09:33:42;;;;;;;;;;;;;;;25.73;46.21;100413.63;5019180;27;109245;-69
2022/06/07 09:36:15;;;;;;;;;;;;;;;25.69;46.07;100406.09;5017613;27;125284;-69
2022/06/07 09:38:42;;;;;;;;;;;;;;;25.94;45.60;100409.25;5028355;27;98132;-69
2022/06/07 09:41:36;;;;;;;;;;;;;;;26.06;45.40;100412.97;5035235;27;116227;-69
2022/06/07 09:44:01;;;;;;;;;;;;;;;25.82;45.53;100403.97;5039886;27;98926;-62
2022/06/07 09:46:27;;;;;;;;;;;;;;;25.66;45.67;100417.06;5038237;27;98025;-62
2022/06/07 09:48:53;;;;;;;;;;;;;;;25.59;45.74;100417.78;5023721;27;127089;-63
2022/06/07 09:51:21;;;;;;;;;;;;;;;25.54;45.98;100409.00;5018113;28;100455;-62
2022/06/07 09:53:53;;;;;;;;;;;;;;;25.62;45.96;100414.28;5030080;27;98972;-69
2022/06/07 09:56:45;;;;;;;;;;;;;;;25.63;45.54;100413.09;5039156;27;98991;-62
2022/06/07 09:59:32;;;;;;;;;;;;;;;25.64;45.89;100413.91;5037455;27;125372;-63
2022/06/07 10:02:12;;;;;;;;;;;;;;;25.53;45.96;100407.41;5038129;27;97398;-68
2022/06/07 10:04:55;;;;;;;;;;;;;;;25.43;46.23;100406.88;5038133;27;98930;-69
2022/06/07 10:07:27;;;;;;;;;;;;;;;25.32;46.15;100414.19;4998389;27;125009;-69
2022/06/07 10:10:08;;;;;;;;;;;;;;;25.20;46.20;100406.88;5001189;28;98724;-62
2022/06/07 10:12:52;;;;;;;;;;;;;;;25.09;46.41;100405.06;5019812;27;97736;-69
2022/06/07 10:15:18;;;;;;;;;;;;;;;24.99;46.41;100406.47;5001957;28;121104;-62
2022/06/07 10:17:50;;;;;;;;;;;;;;;25.02;46.52;100408.50;5020650;27;102918;-62
2022/06/07 10:20:22;;;;;;;;;;;;;;;25.05;46.17;100406.97;5038072;27;119961;-62
2022/06/07 10:22:58;;;;;;;;;;;;;;;25.02;46.24;100411.25;5036272;27;97563;-62
2022/06/07 10:25:57;;;;;;;;;;;;;;;25.03;46.13;100409.28;5015897;27;124790;-63
2022/06/07 10:28:45;;;;;;;;;;;;;;;25.05;45.81;100409.72;5023206;27;120923;-69
2022/06/07 10:31:25;;;;;;;;;;;;;;;25.02;45.63;100402.19;5035499;27;126275;-64
2022/06/07 10:33:59;;;;;;;;;;;;;;;24.96;45.85;100408.00;5021977;27;97819;-62
2022/06/07 10:36:25;;;;;;;;;;;;;;;24.96;45.63;100404.47;5025266;27;126794;-69
2022/06/07 10:39:20;;;;;;;;;;;;;;;24.93;45.77;100405.97;5027492;27;104410;-69
2022/06/07 10:42:23;;;;;;;;;;;;;;;24.85;45.66;100411.72;5036863;27;97256;-69
2022/06/07 10:44:55;;;;;;;;;;;;;;;24.75;46.04;100410.34;5039366;27;97315;-62
2022/06/07 10:47:47;;;;;;;;;;;;;;;24.67;45.96;100406.66;5017172;27;98574;-62
2022/06/07 10:50:34;;;;;;;;;;;;;;;24.63;45.63;100414.06;5018215;27;98722;-69
2022/06/07 10:53:06;;;;;;;;;;;;;;;24.64;45.72;100406.59;5001680;27;98003;-63
2022/06/07 10:55:35;;;;;;;;;;;;;;;24.64;45.80;100404.66;5001513;27;105880;-68
2022/06/07 10:58:24;;;;;;;;;;;;;;;24.67;45.40;100408.63;5021129;27;97843;-69
2022/06/07 11:01:02;;;;;;;;;;;;;;;24.74;45.62;100425.28;5012392;27;98601;-70
2022/06/07 11:03:46;;;;;;;;;;;;;;;24.79;45.46;100413.97;5011940;28;97950;-71
2022/06/07 11:09:37;;;;;;;;;;;;;;;24.75;44.89;100413.09;5011711;27;97719;-62
2022/06/07 11:12:16;;;;;;;;;;;;;;;24.66;44.98;100412.53;5011606;28;99257;-61
2022/06/07 11:15:02;;;;;;;;;;;;;;;24.54;44.96;100407.19;4997815;28;98591;-67
2022/06/07 11:17:45;;;;;;;;;;;;;;;24.37;44.93;100414.69;5011242;27;96942;-70
2022/06/07 11:20:24;;;;;;;;;;;;;;;24.21;45.35;100409.25;5012027;27;124881;-61
2022/06/07 11:22:54;;;;;;;;;;;;;;;24.08;45.36;100415.22;4998711;27;98670;-68
2022/06/07 11:25:43;;;;;;;;;;;;;;;24.01;45.77;100415.84;5018591;27;97897;-61
2022/06/07 11:28:33;;;;;;;;;;;;;;;23.96;45.73;100413.41;5011844;28;98242;-68
2022/06/07 11:31:20;;;;;;;;;;;;;;;23.87;45.82;100416.34;5006775;27;98126;-61
2022/06/07 11:33:53;;;;;;;;;;;;;;;23.79;45.79;100413.78;5017322;27;97872;-64
2022/06/07 11:36:24;;;;;;;;;;;;;;;23.74;45.69;100412.13;5013111;28;97627;-68
2022/06/07 11:39:19;;;;;;;;;;;;;;;23.75;45.62;100410.97;5012187;27;97953;-68
2022/06/07 11:41:51;;;;;;;;;;;;;;;23.83;45.37;100415.47;4985915;28;98519;-62
2022/06/07 11:44:17;;;;;;;;;;;;;;;23.89;45.53;100413.22;5016217;27;98564;-61
2022/06/07 11:46:52;;;;;;;;;;;;;;;23.95;45.21;100412.59;5010743;28;102067;-68
2022/06/07 11:49:20;;;;;;;;;;;;;;;24.03;45.01;100416.31;5012864;27;97692;-68
2022/06/07 11:51:56;;;;;;;;;;;;;;;24.08;44.67;100418.78;5012400;27;98127;-68
2022/06/07 11:54:28;;;;;;;;;;;;;;;24.18;44.78;100407.22;5019194;27;98019;-68
2022/06/07 11:56:57;;;;;;;;;;;;;;;24.25;44.42;100401.06;4995206;28;97299;-68
2022/06/07 11:59:23;;;;;;;;;;;;;;;24.30;44.05;100406.28;5015251;27;97821;-61
2022/06/07 12:01:54;;;;;;;;;;;;;;;24.36;43.72;100399.31;5015119;27;98526;-69
2022/06/07 12:04:34;;;;;;;;;;;;;;;24.43;43.60;100398.69;5015652;27;97823;-68
2022/06/07 12:07:21;;;;;;;;;;;;;;;24.54;42.87;100396.16;5011537;27;98958;-61
2022/06/07 12:09:56;;;;;;;;;;;;;;;24.64;42.77;100401.06;5011254;27;97662;-68
2022/06/07 12:12:34;;;;;;;;;;;;;;;24.74;42.70;100398.53;5023396;27;97963;-68
2022/06/07 12:15:14;;;;;;;;;;;;;;;24.86;42.46;100391.25;5008926;27;119721;-61
2022/06/07 12:17:55;;;;;;;;;;;;;;;24.98;42.25;100378.09;5009096;27;97734;-68
2022/06/07 12:20:30;;;;;;;;;;;;;;;25.21;41.65;100380.09;5015204;27;97621;-61
2022/06/07 12:22:57;;;;;;;;;;;;;;;25.50;41.14;100370.31;5021719;27;98565;-68
2022/06/07 12:25:23;;;;;;;;;;;;;;;25.76;41.04;100369.53;5015080;27;99016;-61
2022/06/07 12:27:51;;;;;;;;;;;;;;;26.13;40.46;100368.88;5016715;28;97579;-68
2022/06/07 12:30:27;;;;;;;;;;;;;;;26.51;39.91;100373.31;5012313;27;97783;-68
2022/06/07 12:32:54;;;;;;;;;;;;;;;26.84;38.99;100364.19;5016427;27;98455;-68
2022/06/07 12:35:20;;;;;;;;;;;;;;;26.94;39.05;100359.94;5013590;27;97808;-68
2022/06/07 12:37:49;;;;;;;;;;;;;;;27.09;38.67;100366.41;5027770;27;98797;-61
2022/06/07 12:40:27;;;;;;;;;;;;;;;27.24;38.19;100359.06;5013852;27;115821;-68
2022/06/07 12:42:53;;;;;;;;;;;;;;;27.32;37.99;100360.69;5018617;27;99405;-68
2022/06/07 12:45:21;;;;;;;;;;;;;;;27.39;38.03;100357.97;5014440;28;109100;-61
2022/06/07 12:47:58;;;;;;;;;;;;;;;27.41;37.70;100356.41;5014867;27;98027;-62
2022/06/07 12:50:33;;;;;;;;;;;;;;;27.41;37.66;100361.94;5013464;28;97918;-61
2022/06/07 12:52:59;;;;;;;;;;;;;;;27.34;37.30;100356.34;5018674;27;123695;-68
2022/06/07 12:55:32;;;;;;;;;;;;;;;27.24;37.44;100354.31;5020191;27;98233;-62
2022/06/07 12:58:04;;;;;;;;;;;;;;;27.20;37.49;100355.47;5000774;27;98867;-68
2022/06/07 13:00:34;;;;;;;;;;;;;;;27.14;37.42;100344.72;5015268;27;97625;-68
2022/06/07 13:03:22;;;;;;;;;;;;;;;27.03;37.47;100348.56;5017642;27;99191;-61
2022/06/07 13:05:54;;;;;;;;;;;;;;;26.87;37.62;100340.50;5013502;27;98583;-61
2022/06/07 13:08:25;;;;;;;;;;;;;;;26.64;37.32;100348.97;5010487;27;105283;-62
2022/06/07 13:10:51;;;;;;;;;;;;;;;26.43;37.54;100352.28;5007402;28;116378;-61